Hauptseite
METAR-TAF:

METAR-TAF

Flughäfen :

Siegerlandflughafen

Siegen, Deutschland

Breite: 50-42-28N, Länge: 008-04-59E, Höhe: 602 m

Beobachtung

Neuester Wetterbericht von vor 10 Stunden und 44 Minuten, um 16:50 UTC
Wind 9 kt aus Südwest, variierte zwischen Süd und West/Südwest
Temperatur 13°C
Luftfeuchtigkeit 58%
Luftdruck 1002 hPa
Sichtweite 10 km oder mehr
Aufgelockert bewölkt in der Höhe von 3900 ft

METAR: EDGS 061650Z 23009KT 180V250 9999 SCT039 13/05 Q1002

Zeit: 05:34 (03:34 UTC)

Prognose

Neuester Wetterbericht von vor 10 Stunden und 34 Minuten, um 17:00 UTC
Gültige Prognose vom 06 um 18 UTC bis 07 um 03 UTC
Wind 11 kt aus Südwest
Sichtweite 10 km oder mehr
Aufgelockert bewölkt in der Höhe von 4000 ft
Übergehend zu
vom 06 um 18 UTC bis 06 um 21 UTC
Wind 6 kt aus Südwest

TAF: EDGS 061700Z 0618/0703 23011KT 9999 SCT040 BECMG 0618/0621 22006KT

Wetterbeobachtungen und Prognosen von mehr als 4000 Flughäfen (METAR und TAF Bericht).

Die verfügbaren Stationen werden durch gelbe und rote Markierungen auf der Karte dargestellt.

Führen Sie die Maus auf sie, um den Namen der Station zu sehen.

Darauf klicken, um die Beobachtung von Wetterbeobachtungen und Prognosen zu sehen.

Um die Karte zu ändern : klicken Sie auf den grünen Tasten mit einem schwarzen Kreuz Zum Vergrößern, auf den grünen Button mit einem Gedankenstrich zu verkleinern, oder auf die grünen Pfeile für benachbarte Karten.


METAR-TAF: